Time,TemperatureF,DewpointF,PressureIn,WindDirection,WindDirectionDegrees,WindSpeedMPH,WindSpeedGustMPH,Humidity,HourlyPrecipIn,Conditions,Clouds,dailyrainin,SoftwareType,DateUTC
2013-12-19 00:12:00,48.9,44.0,29.82,SW,225,0.0,-999.0,83,-99.99,,,0.00,Acu-Link.com,2013-12-19 08:12:00,
2013-12-19 00:27:00,49.1,44.2,29.82,SW,225,0.0,-999.0,83,-99.99,,,0.00,Acu-Link.com,2013-12-19 08:27:00,
2013-12-19 00:42:00,48.7,43.8,29.82,SW,225,1.1,-999.0,83,-99.99,,,0.00,Acu-Link.com,2013-12-19 08:42:00,
2013-12-19 00:58:00,48.2,43.3,29.82,NNW,337,3.7,-999.0,83,-99.99,,,0.00,Acu-Link.com,2013-12-19 08:58:00,
2013-12-19 01:13:00,48.2,43.3,29.82,ENE,67,1.1,-999.0,83,-99.99,,,0.00,Acu-Link.com,2013-12-19 09:13:00,
2013-12-19 01:28:00,47.7,42.8,29.83,ENE,67,1.7,-999.0,83,-99.99,,,0.00,Acu-Link.com,2013-12-19 09:28:00,
2013-12-19 01:44:00,47.3,42.4,29.82,ENE,67,2.2,-999.0,83,-99.99,,,0.00,Acu-Link.com,2013-12-19 09:44:00,
2013-12-19 01:59:00,47.8,43.2,29.83,ENE,67,2.7,-999.0,84,-99.99,,,0.00,Acu-Link.com,2013-12-19 09:59:00,
2013-12-19 02:14:00,47.8,43.2,29.82,ENE,67,2.2,-999.0,84,-99.99,,,0.00,Acu-Link.com,2013-12-19 10:14:00,
2013-12-19 02:30:00,48.0,43.4,29.82,ENE,67,2.2,-999.0,84,-99.99,,,0.00,Acu-Link.com,2013-12-19 10:30:00,
2013-12-19 02:45:00,48.0,43.4,29.81,ENE,67,1.7,-999.0,84,-99.99,,,0.00,Acu-Link.com,2013-12-19 10:45:00,
2013-12-19 03:15:00,48.2,43.3,29.81,ENE,67,1.1,-999.0,83,-99.99,,,0.00,Acu-Link.com,2013-12-19 11:15:00,
2013-12-19 03:31:00,47.5,43.2,29.81,ENE,67,0.0,-999.0,85,-99.99,,,0.00,Acu-Link.com,2013-12-19 11:31:00,
2013-12-19 03:46:00,47.3,43.3,29.81,ENE,67,1.7,-999.0,86,-99.99,,,0.00,Acu-Link.com,2013-12-19 11:46:00,
2013-12-19 04:01:00,46.6,42.9,29.80,ENE,67,0.0,-999.0,87,-99.99,,,0.00,Acu-Link.com,2013-12-19 12:01:00,
2013-12-19 04:17:00,46.6,43.2,29.80,ENE,67,1.1,-999.0,88,-99.99,,,0.00,Acu-Link.com,2013-12-19 12:17:00,
2013-12-19 04:32:00,46.2,42.8,29.80,ENE,67,0.0,-999.0,88,-99.99,,,0.00,Acu-Link.com,2013-12-19 12:32:00,
2013-12-19 04:47:00,45.9,42.5,29.80,ENE,67,0.0,-999.0,88,-99.99,,,0.00,Acu-Link.com,2013-12-19 12:47:00,
2013-12-19 05:03:00,45.3,42.3,29.80,ENE,67,1.1,-999.0,89,-99.99,,,0.00,Acu-Link.com,2013-12-19 13:03:00,
2013-12-19 05:18:00,45.0,42.0,29.81,ENE,67,0.0,-999.0,89,-99.99,,,0.00,Acu-Link.com,2013-12-19 13:18:00,
2013-12-19 05:33:00,45.0,42.2,29.81,ENE,67,0.0,-999.0,90,-99.99,,,0.00,Acu-Link.com,2013-12-19 13:33:00,
2013-12-19 05:49:00,45.1,42.3,29.81,ENE,67,0.0,-999.0,90,-99.99,,,0.00,Acu-Link.com,2013-12-19 13:49:00,
2013-12-19 06:04:00,45.3,42.5,29.81,ENE,67,1.7,-999.0,90,-99.99,,,0.00,Acu-Link.com,2013-12-19 14:04:00,
2013-12-19 06:19:00,45.5,42.7,29.81,ENE,67,0.0,-999.0,90,-99.99,,,0.00,Acu-Link.com,2013-12-19 14:19:00,
2013-12-19 06:35:00,46.2,43.1,29.82,ENE,67,0.0,-999.0,89,-99.99,,,0.00,Acu-Link.com,2013-12-19 14:35:00,
2013-12-19 06:50:00,46.0,42.9,29.83,ENE,67,1.1,-999.0,89,-99.99,,,0.00,Acu-Link.com,2013-12-19 14:50:00,
2013-12-19 07:05:00,46.0,42.9,29.83,ENE,67,0.0,-999.0,89,-99.99,,,0.00,Acu-Link.com,2013-12-19 15:05:00,
2013-12-19 07:20:00,46.2,43.1,29.84,ENE,67,0.0,-999.0,89,-99.99,,,0.00,Acu-Link.com,2013-12-19 15:20:00,
2013-12-19 07:36:00,46.6,43.5,29.84,ENE,67,0.0,-999.0,89,-99.99,,,0.00,Acu-Link.com,2013-12-19 15:36:00,
2013-12-19 07:51:00,46.9,43.8,29.84,ENE,67,2.2,-999.0,89,-99.99,,,0.00,Acu-Link.com,2013-12-19 15:51:00,
2013-12-19 08:06:00,46.9,43.5,29.86,ENE,67,0.0,-999.0,88,-99.99,,,0.00,Acu-Link.com,2013-12-19 16:06:00,
2013-12-19 08:21:00,47.3,43.9,29.87,ENE,67,1.7,-999.0,88,-99.99,,,0.00,Acu-Link.com,2013-12-19 16:21:00,
2013-12-19 08:37:00,48.0,44.3,29.87,ENE,67,1.1,-999.0,87,-99.99,,,0.00,Acu-Link.com,2013-12-19 16:37:00,
2013-12-19 08:52:00,48.6,44.6,29.88,ENE,67,1.7,-999.0,86,-99.99,,,0.00,Acu-Link.com,2013-12-19 16:52:00,
2013-12-19 09:07:00,48.7,44.4,29.88,NE,45,2.2,-999.0,85,-99.99,,,0.00,Acu-Link.com,2013-12-19 17:07:00,
2013-12-19 09:23:00,48.9,44.6,29.89,NE,45,1.1,-999.0,85,-99.99,,,0.00,Acu-Link.com,2013-12-19 17:23:00,
2013-12-19 09:38:00,49.3,44.7,29.89,SE,135,1.1,-999.0,84,-99.99,,,0.00,Acu-Link.com,2013-12-19 17:38:00,
2013-12-19 09:54:00,49.5,44.6,29.89,SE,135,0.0,-999.0,83,-99.99,,,0.00,Acu-Link.com,2013-12-19 17:54:00,
2013-12-19 10:09:00,49.6,44.7,29.89,NNE,22,2.2,-999.0,83,-99.99,,,0.00,Acu-Link.com,2013-12-19 18:09:00,
2013-12-19 10:24:00,50.4,44.8,29.89,NNW,337,3.2,-999.0,81,-99.99,,,0.00,Acu-Link.com,2013-12-19 18:24:00,
2013-12-19 10:39:00,50.9,45.0,29.90,East,90,3.7,-999.0,80,-99.99,,,0.00,Acu-Link.com,2013-12-19 18:39:00,
2013-12-19 10:55:00,50.9,44.6,29.90,NE,45,3.7,-999.0,79,-99.99,,,0.00,Acu-Link.com,2013-12-19 18:55:00,
2013-12-19 11:10:00,52.3,45.0,29.89,ENE,67,1.7,-999.0,76,-99.99,,,0.00,Acu-Link.com,2013-12-19 19:10:00,
2013-12-19 11:25:00,53.1,45.7,29.89,NNE,22,2.7,-999.0,76,-99.99,,,0.00,Acu-Link.com,2013-12-19 19:25:00,
2013-12-19 11:40:00,53.1,45.4,29.89,NNE,22,1.1,-999.0,75,-99.99,,,0.00,Acu-Link.com,2013-12-19 19:40:00,
2013-12-19 11:56:00,53.8,45.4,29.89,NNE,22,2.7,-999.0,73,-99.99,,,0.00,Acu-Link.com,2013-12-19 19:56:00,
2013-12-19 12:11:00,53.8,44.2,29.88,WSW,247,3.7,-999.0,70,-99.99,,,0.00,Acu-Link.com,2013-12-19 20:11:00,
2013-12-19 12:26:00,53.8,43.9,29.88,NNW,337,3.7,-999.0,69,-99.99,,,0.00,Acu-Link.com,2013-12-19 20:26:00,
2013-12-19 12:42:00,54.9,44.5,29.87,NNW,337,3.2,-999.0,68,-99.99,,,0.00,Acu-Link.com,2013-12-19 20:42:00,
2013-12-19 12:57:00,55.9,43.9,29.87,West,270,4.2,-999.0,64,-99.99,,,0.00,Acu-Link.com,2013-12-19 20:57:00,
2013-12-19 13:12:00,56.8,43.5,29.86,North,0,2.2,-999.0,61,-99.99,,,0.00,Acu-Link.com,2013-12-19 21:12:00,
2013-12-19 13:28:00,58.1,42.9,29.86,WNW,292,5.8,-999.0,57,-99.99,,,0.00,Acu-Link.com,2013-12-19 21:28:00,
2013-12-19 13:43:00,57.2,42.6,29.86,NW,315,5.8,-999.0,58,-99.99,,,0.00,Acu-Link.com,2013-12-19 21:43:00,
2013-12-19 13:58:00,56.7,42.5,29.87,ESE,112,4.7,-999.0,59,-99.99,,,0.00,Acu-Link.com,2013-12-19 21:58:00,
2013-12-19 14:13:00,56.5,42.8,29.87,West,270,4.7,-999.0,60,-99.99,,,0.00,Acu-Link.com,2013-12-19 22:13:00,
2013-12-19 14:28:00,55.4,43.0,29.87,West,270,4.7,-999.0,63,-99.99,,,0.00,Acu-Link.com,2013-12-19 22:28:00,
2013-12-19 14:43:00,55.6,42.8,29.87,NW,315,6.8,-999.0,62,-99.99,,,0.00,Acu-Link.com,2013-12-19 22:43:00,
2013-12-19 14:59:00,55.4,43.4,29.88,WNW,292,2.7,-999.0,64,-99.99,,,0.00,Acu-Link.com,2013-12-19 22:59:00,
2013-12-19 15:14:00,55.0,43.0,29.89,WNW,292,4.7,-999.0,64,-99.99,,,0.00,Acu-Link.com,2013-12-19 23:14:00,
2013-12-19 15:29:00,55.4,43.0,29.89,NW,315,3.7,-999.0,63,-99.99,,,0.00,Acu-Link.com,2013-12-19 23:29:00,
2013-12-19 15:45:00,55.2,42.8,29.89,NNE,22,2.7,-999.0,63,-99.99,,,0.00,Acu-Link.com,2013-12-19 23:45:00,
2013-12-19 16:00:00,54.5,41.8,29.89,WNW,292,4.7,-999.0,62,-99.99,,,0.00,Acu-Link.com,2013-12-20 00:00:00,
2013-12-19 16:15:00,53.6,41.3,29.89,West,270,2.7,-999.0,63,-99.99,,,0.00,Acu-Link.com,2013-12-20 00:15:00,
2013-12-19 16:30:00,52.9,41.1,29.90,WNW,292,2.2,-999.0,64,-99.99,,,0.00,Acu-Link.com,2013-12-20 00:30:00,
2013-12-19 16:45:00,52.0,41.0,29.91,NW,315,2.2,-999.0,66,-99.99,,,0.00,Acu-Link.com,2013-12-20 00:45:00,
2013-12-19 17:00:00,51.1,40.9,29.92,NW,315,1.7,-999.0,68,-99.99,,,0.00,Acu-Link.com,2013-12-20 01:00:00,
2013-12-19 17:16:00,50.4,40.6,29.93,NW,315,1.7,-999.0,69,-99.99,,,0.00,Acu-Link.com,2013-12-20 01:16:00,
2013-12-19 17:31:00,50.0,40.6,29.94,NW,315,0.0,-999.0,70,-99.99,,,0.00,Acu-Link.com,2013-12-20 01:31:00,
2013-12-19 17:46:00,50.2,40.8,29.94,NW,315,0.0,-999.0,70,-99.99,,,0.00,Acu-Link.com,2013-12-20 01:46:00,
2013-12-19 18:02:00,50.0,41.0,29.94,NW,315,0.0,-999.0,71,-99.99,,,0.00,Acu-Link.com,2013-12-20 02:02:00,
2013-12-19 18:17:00,49.8,40.8,29.94,NW,315,0.0,-999.0,71,-99.99,,,0.00,Acu-Link.com,2013-12-20 02:17:00,
2013-12-19 18:32:00,49.8,41.1,29.95,NW,315,0.0,-999.0,72,-99.99,,,0.00,Acu-Link.com,2013-12-20 02:32:00,
2013-12-19 18:47:00,49.6,41.3,29.95,NW,315,0.0,-999.0,73,-99.99,,,0.00,Acu-Link.com,2013-12-20 02:47:00,
2013-12-19 19:03:00,49.5,41.2,29.96,NW,315,1.1,-999.0,73,-99.99,,,0.00,Acu-Link.com,2013-12-20 03:03:00,
2013-12-19 19:18:00,49.3,41.4,29.95,NW,315,0.0,-999.0,74,-99.99,,,0.00,Acu-Link.com,2013-12-20 03:18:00,
2013-12-19 19:33:00,49.1,41.5,29.96,NW,315,1.7,-999.0,75,-99.99,,,0.00,Acu-Link.com,2013-12-20 03:33:00,
2013-12-19 19:49:00,49.3,41.7,29.96,NW,315,1.1,-999.0,75,-99.99,,,0.00,Acu-Link.com,2013-12-20 03:49:00,
2013-12-19 20:04:00,48.9,41.7,29.95,NW,315,0.0,-999.0,76,-99.99,,,0.00,Acu-Link.com,2013-12-20 04:04:00,
2013-12-19 20:19:00,47.7,41.2,29.96,NW,315,0.0,-999.0,78,-99.99,,,0.00,Acu-Link.com,2013-12-20 04:19:00,
2013-12-19 20:35:00,46.9,40.7,29.96,NW,315,2.2,-999.0,79,-99.99,,,0.00,Acu-Link.com,2013-12-20 04:35:00,
2013-12-19 20:50:00,46.4,40.9,29.97,NW,315,1.7,-999.0,81,-99.99,,,0.00,Acu-Link.com,2013-12-20 04:50:00,
2013-12-19 21:05:00,45.5,40.6,29.98,NW,315,2.7,-999.0,83,-99.99,,,0.00,Acu-Link.com,2013-12-20 05:05:00,
2013-12-19 21:21:00,44.8,40.3,29.99,NNW,337,0.0,-999.0,84,-99.99,,,0.00,Acu-Link.com,2013-12-20 05:21:00,
2013-12-19 21:36:00,44.1,39.9,29.99,NNW,337,0.0,-999.0,85,-99.99,,,0.00,Acu-Link.com,2013-12-20 05:36:00,
2013-12-19 21:51:00,43.0,39.4,29.99,NNW,337,0.0,-999.0,87,-99.99,,,0.00,Acu-Link.com,2013-12-20 05:51:00,
2013-12-19 22:07:00,42.4,39.1,30.00,NNW,337,0.0,-999.0,88,-99.99,,,0.00,Acu-Link.com,2013-12-20 06:07:00,
2013-12-19 22:22:00,41.2,38.2,30.01,NNW,337,0.0,-999.0,89,-99.99,,,0.00,Acu-Link.com,2013-12-20 06:22:00,
2013-12-19 22:37:00,41.4,39.3,30.01,NNW,337,0.0,-999.0,92,-99.99,,,0.00,Acu-Link.com,2013-12-20 06:37:00,
2013-12-19 22:52:00,42.1,38.8,30.01,NNW,337,1.7,-999.0,88,-99.99,,,0.00,Acu-Link.com,2013-12-20 06:52:00,
2013-12-19 23:07:00,41.9,37.1,30.02,NNW,337,2.2,-999.0,83,-99.99,,,0.00,Acu-Link.com,2013-12-20 07:07:00,
2013-12-19 23:22:00,40.3,35.9,30.01,NNW,337,0.0,-999.0,84,-99.99,,,0.00,Acu-Link.com,2013-12-20 07:22:00,
2013-12-19 23:38:00,39.2,35.1,30.01,NNW,337,0.0,-999.0,85,-99.99,,,0.00,Acu-Link.com,2013-12-20 07:38:00,
2013-12-19 23:53:00,38.5,34.4,30.01,NNW,337,0.0,-999.0,85,-99.99,,,0.00,Acu-Link.com,2013-12-20 07:53:00,